Share

Wendover, KY

4:29 AM EDT on April 25, 2014 (GMT -0400)
KKYJACKS3 Elev 994 ft | 37.41 °N, 83.42 °W | Change Station

Current weather conditions updated 3 minutes ago

Overcast
Overcast
51.3 °F
Feels Like 51.3 °F
N
0.0
Wind Variable Wind from North
Gusts 0.0 mph
Sunrise 6:46 AM
Sunset 8:17 PM
Moon Waning Crescent

Today is forecast to be Much Cooler than yesterday. Cloudy with showers and thunderstorms.

Pressure 29.79 in
Visibility 10.0 miles
Clouds Mostly Cloudy 6000 ft
Overcast 7500 ft
Dew Point 46 °F
Humidity 83%
Rainfall 0.00 in
Snow Depth Not available.
UV 0 out of 16
Pollen 9.90 out of 12
Air Quality Not available.
Flu Activity Sporadic
METAR KI35 250815Z AUTO 10003KT 10SM BKN060 OVC075 16/02 A2979 RMK AO1

More Conditions Fewer Conditions

Pressure 29.79 in
Visibility 10.0 miles
Clouds Mostly Cloudy 6000 ft
Overcast 7500 ft
Dew Point 46 °F
Humidity 83%
Rainfall 0.00 in
Snow Depth Not available.
UV 0 out of 16
Pollen 9.90 out of 12
Air Quality Not available.
Flu Activity Sporadic
METAR KI35 250815Z AUTO 10003KT 10SM BKN060 OVC075 16/02 A2979 RMK AO1

More Conditions Fewer Conditions

10-Day Weather Forecast

Almanac

Astronomy

Apr. 25, 2014 Rise Set
Actual Time 6:46 AM EDT 8:17 PM EDT
Civil Twilight 6:18 AM EDT 8:45 PM EDT
Nautical Twilight 5:45 AM EDT 9:18 PM EDT
Astronomical Twilight 5:10 AM EDT 9:53 PM EDT
Moon 4:27 AM EDT 4:43 PM EDT
Length of Visible Light 14h 26m
Length of Day
13h 31m
Tomorrow will be 2m 8s longer.
Waning Crescent, 18% of the Moon is Illuminated
Today
Waning Crescent
Apr 29
New
May 6
First Quarter
May 14
Full
May 21
Last Quarter

Today's Extremes

State Highs State Lows

Community

  • Deer in evening light
    Deer in evening light
  • Critter
    Critter
  • Jone Runs Falls
    Jone Runs Falls
  • Easter in Shenandoah National Park
    Easter in Shenandoah National Park
  • Sunset at Apalachicola Bay, Florida
    Sunset at Apalachicola Bay, Florida

WunderPhotos

Upload Photos

1,704,874 photos uploaded!

WunderBlogs® & News

Nearby

Snow Depth

Station Depth Elevation
No new snow has been reported.

Coastal Water Temperatures

Place Temperature
No Stations Reporting

Earthquake Activity

City Distance Mag. Time & Date
No recent earthquake activity has been reported nearby.
Minimum magnitude displayed is 2.5.

Nearby Weather Stations

Station Location Temp. Dew Point Humidity Wind Precip. Elev Updated Type
Talbert, KY 51.3 °F 46 °F 83% North  at  0.0 mph 0.00 in / hr 994 ft 4:25 AM EDT Normal

Show More Stations Show Fewer Stations

What do you think?

We're not finished. Please let us know what you like, what you don't like, and what you are still missing.